createdAt,value
2023-03-20T00:01:24.364Z,14.57
2023-03-20T00:03:54.951Z,11.57
2023-03-20T00:06:25.634Z,13.07
2023-03-20T00:08:57.584Z,12.53
2023-03-20T00:11:33.281Z,12.00
2023-03-20T00:14:04.119Z,11.60
2023-03-20T00:16:34.738Z,11.97
2023-03-20T00:19:05.314Z,12.87
2023-03-20T00:21:34.510Z,11.60
2023-03-20T00:24:03.101Z,11.30
2023-03-20T00:26:35.582Z,10.17
2023-03-20T00:29:05.718Z,10.27
2023-03-20T00:31:36.576Z,10.47
2023-03-20T00:34:08.487Z,11.80
2023-03-20T00:36:37.414Z,10.90
2023-03-20T00:39:06.479Z,10.70
2023-03-20T00:41:46.247Z,9.50
2023-03-20T00:44:21.988Z,11.70
2023-03-20T00:47:05.124Z,9.13
2023-03-20T00:49:36.545Z,11.37
2023-03-20T00:52:06.266Z,9.27
2023-03-20T00:54:34.865Z,11.63
2023-03-20T00:57:04.475Z,10.63
2023-03-20T00:59:39.276Z,10.30
2023-03-20T01:02:10.767Z,8.87
2023-03-20T01:04:42.723Z,10.30
2023-03-20T01:07:14.705Z,10.10
2023-03-20T01:09:47.514Z,9.53
2023-03-20T01:12:17.820Z,8.77
2023-03-20T01:14:48.314Z,9.30
2023-03-20T01:17:20.472Z,8.60
2023-03-20T01:19:53.267Z,8.97
2023-03-20T01:22:22.114Z,10.03
2023-03-20T01:24:50.662Z,10.80
2023-03-20T01:27:21.248Z,8.70
2023-03-20T01:29:49.870Z,9.07
2023-03-20T01:32:20.312Z,8.57
2023-03-20T01:34:50.444Z,8.13
2023-03-20T01:37:20.424Z,8.87
2023-03-20T01:39:59.383Z,9.63
2023-03-20T01:42:27.980Z,9.70
2023-03-20T01:44:56.547Z,8.10
2023-03-20T01:47:27.997Z,8.70
2023-03-20T01:50:22.918Z,9.03
2023-03-20T01:52:53.631Z,8.60
2023-03-20T01:55:23.273Z,9.50
2023-03-20T01:57:53.423Z,7.83
2023-03-20T02:00:24.081Z,8.97
2023-03-20T02:02:55.571Z,8.90
2023-03-20T02:05:26.337Z,8.50
2023-03-20T02:08:03.625Z,9.50
2023-03-20T02:10:32.446Z,8.97
2023-03-20T02:13:01.788Z,8.20
2023-03-20T02:15:32.031Z,10.03
2023-03-20T02:18:00.518Z,8.40
2023-03-20T02:20:41.652Z,9.10
2023-03-20T02:23:40.353Z,8.43
2023-03-20T02:26:32.927Z,9.10
2023-03-20T02:29:45.961Z,8.67
2023-03-20T02:32:49.979Z,7.40
2023-03-20T02:35:44.766Z,8.10
2023-03-20T02:38:25.792Z,7.77
2023-03-20T02:40:59.440Z,9.17
2023-03-20T02:43:35.008Z,8.20
2023-03-20T02:46:09.991Z,8.10
2023-03-20T02:48:43.736Z,8.73
2023-03-20T02:51:16.691Z,8.20
2023-03-20T02:53:52.846Z,7.70
2023-03-20T02:56:26.465Z,9.07
2023-03-20T02:58:59.935Z,9.80
2023-03-20T03:01:33.368Z,7.93
2023-03-20T03:04:05.288Z,9.00
2023-03-20T03:06:34.968Z,8.50
2023-03-20T03:09:07.219Z,8.40
2023-03-20T03:11:38.325Z,7.73
2023-03-20T03:14:08.399Z,7.33
2023-03-20T03:16:38.961Z,9.63
2023-03-20T03:19:10.675Z,9.97
2023-03-20T03:21:41.856Z,9.10
2023-03-20T03:24:37.275Z,10.10
2023-03-20T03:27:14.257Z,10.33
2023-03-20T03:29:44.332Z,9.83
2023-03-20T03:32:25.087Z,10.20
2023-03-20T03:34:53.821Z,12.83
2023-03-20T03:37:28.320Z,15.83
2023-03-20T03:40:05.042Z,15.80
2023-03-20T03:42:37.136Z,11.87
2023-03-20T03:45:10.192Z,12.57
2023-03-20T03:47:41.465Z,12.60
2023-03-20T03:50:15.808Z,13.90
2023-03-20T03:52:45.408Z,12.83
2023-03-20T03:55:17.160Z,10.10
2023-03-20T03:57:51.505Z,10.10
2023-03-20T04:00:22.129Z,10.37
2023-03-20T04:02:53.223Z,8.50
2023-03-20T04:05:22.364Z,8.63
2023-03-20T04:07:54.987Z,8.67
2023-03-20T04:10:25.590Z,7.37
2023-03-20T04:12:54.251Z,7.20
2023-03-20T04:15:22.827Z,8.30
2023-03-20T04:17:51.423Z,7.80
2023-03-20T04:20:20.218Z,8.67
2023-03-20T04:22:48.980Z,7.60
2023-03-20T04:25:21.078Z,8.10
2023-03-20T04:27:51.546Z,8.43
2023-03-20T04:30:20.558Z,7.27
2023-03-20T04:32:49.144Z,7.40
2023-03-20T04:35:17.871Z,7.50
2023-03-20T04:37:46.580Z,7.63
2023-03-20T04:40:15.814Z,6.87
2023-03-20T04:42:45.207Z,6.40
2023-03-20T04:45:15.421Z,6.77
2023-03-20T04:47:43.967Z,6.77
2023-03-20T04:50:14.172Z,5.43
2023-03-20T04:52:42.996Z,6.00
2023-03-20T04:55:11.705Z,5.27
2023-03-20T04:57:40.365Z,6.00
2023-03-20T05:00:10.151Z,6.70
2023-03-20T05:02:40.421Z,6.83
2023-03-20T05:05:09.666Z,6.63
2023-03-20T05:07:38.581Z,4.00
2023-03-20T05:10:07.363Z,5.50
2023-03-20T05:12:36.171Z,4.73
2023-03-20T05:15:04.750Z,5.60
2023-03-20T05:17:33.632Z,5.77
2023-03-20T05:20:03.301Z,5.70
2023-03-20T05:22:32.084Z,5.10
2023-03-20T05:25:01.274Z,5.20
2023-03-20T05:27:29.942Z,5.40
2023-03-20T05:30:01.253Z,5.33
2023-03-20T05:32:30.307Z,5.73
2023-03-20T05:35:01.587Z,5.40
2023-03-20T05:37:31.871Z,6.87
2023-03-20T05:40:00.870Z,6.23
2023-03-20T05:42:29.807Z,6.60
2023-03-20T05:44:59.978Z,5.70
2023-03-20T05:47:28.456Z,6.10
2023-03-20T05:49:58.221Z,6.20
2023-03-20T05:52:26.950Z,5.47
2023-03-20T05:54:57.198Z,5.53
2023-03-20T05:57:26.112Z,6.53
2023-03-20T05:59:57.796Z,6.20
2023-03-20T06:02:26.793Z,8.23
2023-03-20T06:04:55.760Z,6.90
2023-03-20T06:07:24.461Z,7.57
2023-03-20T06:09:52.987Z,6.40
2023-03-20T06:12:23.794Z,6.10
2023-03-20T06:14:52.994Z,5.93
2023-03-20T06:17:21.578Z,5.93
2023-03-20T06:19:51.014Z,6.00
2023-03-20T06:22:19.280Z,7.20
2023-03-20T06:24:47.783Z,6.77
2023-03-20T06:27:16.522Z,7.03
2023-03-20T06:29:49.727Z,8.63
2023-03-20T06:32:19.454Z,7.20
2023-03-20T06:34:47.785Z,7.80
2023-03-20T06:37:16.776Z,5.90
2023-03-20T06:39:45.491Z,9.53
2023-03-20T06:42:16.158Z,8.20
2023-03-20T06:44:47.609Z,8.50
2023-03-20T06:47:16.568Z,10.27
2023-03-20T06:49:46.013Z,12.17
2023-03-20T06:52:17.897Z,12.33
2023-03-20T06:54:56.505Z,10.30
2023-03-20T06:57:26.218Z,10.47
2023-03-20T06:59:56.294Z,12.43
2023-03-20T07:02:25.091Z,12.93
2023-03-20T07:04:53.709Z,10.50
2023-03-20T07:07:22.737Z,11.70
2023-03-20T07:09:51.892Z,11.80
2023-03-20T07:12:21.176Z,12.70
2023-03-20T07:14:50.111Z,13.87
2023-03-20T07:17:20.270Z,11.80
2023-03-20T07:19:49.204Z,11.60
2023-03-20T07:22:22.163Z,11.67
2023-03-20T07:24:50.817Z,13.13
2023-03-20T07:27:19.547Z,11.20
2023-03-20T07:29:48.163Z,13.20
2023-03-20T07:32:16.961Z,14.30
2023-03-20T07:34:50.511Z,12.07
2023-03-20T07:37:19.267Z,13.27
2023-03-20T07:39:48.080Z,12.23
2023-03-20T07:42:16.888Z,10.10
2023-03-20T07:44:47.420Z,10.93
2023-03-20T07:47:16.210Z,10.53
2023-03-20T07:49:45.221Z,10.90
2023-03-20T07:52:15.301Z,9.27
2023-03-20T07:54:43.806Z,8.47
2023-03-20T07:57:12.507Z,7.90
2023-03-20T07:59:40.943Z,6.80
2023-03-20T08:02:11.420Z,6.70
2023-03-20T08:04:40.392Z,6.60
2023-03-20T08:07:09.238Z,7.50
2023-03-20T08:09:39.436Z,7.10
2023-03-20T08:12:08.471Z,6.50
2023-03-20T08:14:38.888Z,6.00
2023-03-20T08:17:14.995Z,7.67
2023-03-20T08:19:45.561Z,6.47
2023-03-20T08:22:14.046Z,7.67
2023-03-20T08:24:43.896Z,5.87
2023-03-20T08:27:12.689Z,6.67
2023-03-20T08:29:41.336Z,6.50
2023-03-20T08:32:10.208Z,7.20
2023-03-20T08:34:38.562Z,5.80
2023-03-20T08:37:08.196Z,6.53
2023-03-20T08:39:37.979Z,6.40
2023-03-20T08:42:08.432Z,5.80
2023-03-20T08:44:37.546Z,5.37
2023-03-20T08:47:31.038Z,5.63
2023-03-20T08:49:59.612Z,5.70
2023-03-20T08:52:28.447Z,6.60
2023-03-20T08:54:57.446Z,7.50
2023-03-20T08:57:27.467Z,7.80
2023-03-20T08:59:55.957Z,7.33
2023-03-20T09:02:24.778Z,6.40
2023-03-20T09:05:02.644Z,7.50
2023-03-20T09:07:31.425Z,6.93
2023-03-20T09:09:59.918Z,5.47
2023-03-20T09:12:31.864Z,7.27
2023-03-20T09:15:01.579Z,5.93
2023-03-20T09:17:31.432Z,6.30
2023-03-20T09:20:00.170Z,5.83
2023-03-20T09:22:29.764Z,6.03
2023-03-20T09:24:58.917Z,5.80
2023-03-20T09:27:27.807Z,5.93
2023-03-20T09:29:57.739Z,5.97
2023-03-20T09:32:26.636Z,6.87
2023-03-20T09:34:55.770Z,6.47
2023-03-20T09:37:24.418Z,6.83
2023-03-20T09:39:52.861Z,7.30
2023-03-20T09:42:32.248Z,9.13
2023-03-20T09:45:07.437Z,8.30
2023-03-20T09:47:40.578Z,11.57
2023-03-20T09:50:22.577Z,12.73
2023-03-20T09:52:58.922Z,13.20
2023-03-20T09:55:34.081Z,11.67
2023-03-20T09:58:08.570Z,12.90
2023-03-20T10:00:38.827Z,13.87
2023-03-20T10:03:13.933Z,15.23
2023-03-20T10:06:02.492Z,16.27
2023-03-20T10:08:35.124Z,14.13
2023-03-20T10:11:12.351Z,12.17
2023-03-20T10:13:56.223Z,14.73
2023-03-20T10:16:35.227Z,14.23
2023-03-20T10:19:09.818Z,12.97
2023-03-20T10:21:42.233Z,12.90
2023-03-20T10:24:16.108Z,12.67
2023-03-20T10:26:44.998Z,11.23
2023-03-20T10:29:20.548Z,10.23
2023-03-20T10:31:56.254Z,10.83
2023-03-20T10:34:35.196Z,10.77
2023-03-20T10:37:16.726Z,10.43
2023-03-20T10:39:53.817Z,9.90
2023-03-20T10:46:02.305Z,10.70
2023-03-20T10:48:35.414Z,9.00
2023-03-20T10:51:05.065Z,10.20
2023-03-20T10:53:37.014Z,11.53
2023-03-20T10:56:09.127Z,10.63
2023-03-20T10:58:42.341Z,11.23
2023-03-20T11:01:11.151Z,9.60
2023-03-20T11:03:41.855Z,10.00
2023-03-20T11:06:16.246Z,11.43
2023-03-20T11:08:49.485Z,10.10
2023-03-20T11:11:23.563Z,9.97
2023-03-20T11:13:52.393Z,12.00
2023-03-20T11:16:23.953Z,12.53
2023-03-20T11:18:55.366Z,12.37
2023-03-20T11:21:25.565Z,12.93
2023-03-20T11:23:54.501Z,12.70
2023-03-20T11:26:35.814Z,12.60
2023-03-20T11:29:07.377Z,15.63
2023-03-20T11:31:38.146Z,12.37
2023-03-20T11:34:22.685Z,14.00
2023-03-20T11:37:09.277Z,12.30
2023-03-20T11:39:41.103Z,14.23
2023-03-20T11:42:25.038Z,11.27
2023-03-20T11:45:04.004Z,10.47
2023-03-20T11:47:35.040Z,9.20
2023-03-20T11:50:07.478Z,10.67
2023-03-20T11:52:44.872Z,9.50
2023-03-20T11:55:28.399Z,9.00
2023-03-20T11:58:00.688Z,10.77
2023-03-20T12:00:32.188Z,11.13
2023-03-20T12:03:01.151Z,11.20
2023-03-20T12:05:33.825Z,12.33
2023-03-20T12:08:06.641Z,11.97
2023-03-20T12:10:39.691Z,11.50
2023-03-20T12:13:17.201Z,10.07
2023-03-20T12:15:48.909Z,10.80
2023-03-20T12:18:21.007Z,9.70
2023-03-20T12:20:59.667Z,11.63
2023-03-20T12:23:39.203Z,9.50
2023-03-20T12:26:11.278Z,8.97
2023-03-20T12:28:43.148Z,8.87
2023-03-20T12:31:22.465Z,9.20
2023-03-20T12:33:55.098Z,10.63
2023-03-20T12:36:29.882Z,8.73
2023-03-20T12:38:59.164Z,10.03
2023-03-20T12:41:31.429Z,8.63
2023-03-20T12:48:23.044Z,8.83
2023-03-20T12:50:54.951Z,9.33
2023-03-20T12:53:38.782Z,9.20
2023-03-20T12:56:18.521Z,10.90
2023-03-20T12:58:50.161Z,10.20
2023-03-20T13:01:34.239Z,9.77
2023-03-20T13:04:31.153Z,10.97
2023-03-20T13:07:02.774Z,10.00
2023-03-20T13:09:59.745Z,10.70
2023-03-20T13:12:37.776Z,8.70
2023-03-20T13:15:16.865Z,9.50
2023-03-20T13:17:52.810Z,8.20
2023-03-20T13:20:25.345Z,7.73
2023-03-20T13:23:07.260Z,6.70
2023-03-20T13:25:53.952Z,6.40
2023-03-20T13:28:27.394Z,7.27
2023-03-20T13:30:59.079Z,7.73
2023-03-20T13:33:40.223Z,5.40
2023-03-20T13:36:15.760Z,5.40
2023-03-20T13:38:47.923Z,7.30
2023-03-20T13:41:18.494Z,7.07
2023-03-20T13:43:54.486Z,6.47
2023-03-20T13:46:26.804Z,6.57
2023-03-20T13:48:58.578Z,8.17
2023-03-20T13:51:31.193Z,6.10
2023-03-20T13:54:09.092Z,6.50
2023-03-20T13:56:47.553Z,5.97
2023-03-20T13:59:45.016Z,6.70
2023-03-20T14:02:23.932Z,6.67
2023-03-20T14:04:57.738Z,6.50
2023-03-20T14:07:33.897Z,7.03
2023-03-20T14:10:40.010Z,5.77
2023-03-20T14:13:14.908Z,6.47
2023-03-20T14:15:51.106Z,7.73
2023-03-20T14:18:20.190Z,7.00
2023-03-20T14:20:55.851Z,9.03
2023-03-20T14:23:33.810Z,9.30
2023-03-20T14:26:02.640Z,9.50
2023-03-20T14:28:34.829Z,10.00
2023-03-20T14:31:28.039Z,9.37
2023-03-20T14:34:02.140Z,8.73
2023-03-20T14:36:32.751Z,9.20
2023-03-20T14:39:10.084Z,10.30
2023-03-20T14:41:50.885Z,10.70
2023-03-20T14:44:27.092Z,10.23
2023-03-20T14:47:02.002Z,8.80
2023-03-20T14:49:55.299Z,9.23
2023-03-20T14:52:47.843Z,9.63
2023-03-20T14:55:31.711Z,7.93
2023-03-20T14:58:04.465Z,8.83
2023-03-20T15:00:38.416Z,8.87
2023-03-20T15:03:10.589Z,8.07
2023-03-20T15:05:40.761Z,8.70
2023-03-20T15:08:11.958Z,8.07
2023-03-20T15:10:47.948Z,9.93
2023-03-20T15:14:19.730Z,7.13
2023-03-20T15:16:50.630Z,9.50
2023-03-20T15:19:20.496Z,9.10
2023-03-20T15:21:51.323Z,8.10
2023-03-20T15:24:23.413Z,8.97
2023-03-20T15:26:56.347Z,9.90
2023-03-20T15:29:25.102Z,8.80
2023-03-20T15:32:12.878Z,9.00
2023-03-20T15:34:44.346Z,8.77
2023-03-20T15:37:16.429Z,8.40
2023-03-20T15:39:49.615Z,8.67
2023-03-20T15:42:21.526Z,9.80
2023-03-20T15:44:52.341Z,8.07
2023-03-20T15:47:24.391Z,9.43
2023-03-20T15:49:54.636Z,9.80
2023-03-20T15:52:30.964Z,9.20
2023-03-20T15:55:01.597Z,9.20
2023-03-20T15:57:35.661Z,7.27
2023-03-20T16:00:18.948Z,7.57
2023-03-20T16:02:49.980Z,7.33
2023-03-20T16:05:20.703Z,9.00
2023-03-20T16:07:49.552Z,8.60
2023-03-20T16:10:19.764Z,7.87
2023-03-20T16:12:50.777Z,8.37
2023-03-20T16:15:20.622Z,7.17
2023-03-20T16:17:51.208Z,8.50
2023-03-20T16:20:20.372Z,7.60
2023-03-20T16:22:49.861Z,7.70
2023-03-20T16:25:20.063Z,8.67
2023-03-20T16:27:52.980Z,9.10
2023-03-20T16:30:24.863Z,8.90
2023-03-20T16:33:00.999Z,9.00
2023-03-20T16:35:34.080Z,8.33
2023-03-20T16:38:03.894Z,10.67
2023-03-20T16:40:36.956Z,10.53
2023-03-20T16:43:08.526Z,10.57
2023-03-20T16:45:38.716Z,8.90
2023-03-20T16:48:26.562Z,9.90
2023-03-20T16:51:00.722Z,8.33
2023-03-20T16:53:31.216Z,7.97
2023-03-20T16:55:59.907Z,10.80
2023-03-20T16:58:31.076Z,12.33
2023-03-20T17:01:01.998Z,10.03
2023-03-20T17:03:38.234Z,9.43
2023-03-20T17:06:29.622Z,8.53
2023-03-20T17:09:04.021Z,8.97
2023-03-20T17:11:35.818Z,8.13
2023-03-20T17:14:04.714Z,9.00
2023-03-20T17:16:34.548Z,8.70
2023-03-20T17:19:07.570Z,8.30
2023-03-20T17:21:36.299Z,7.10
2023-03-20T17:24:05.030Z,7.43
2023-03-20T17:26:34.175Z,8.93
2023-03-20T17:29:02.967Z,8.80
2023-03-20T17:31:32.132Z,8.93
2023-03-20T17:34:01.029Z,8.53
2023-03-20T17:36:32.904Z,8.70
2023-03-20T17:39:01.908Z,8.20
2023-03-20T17:41:30.759Z,7.00
2023-03-20T17:43:59.581Z,8.57
2023-03-20T17:46:30.515Z,8.73
2023-03-20T17:49:01.501Z,7.43
2023-03-20T17:51:31.752Z,7.30
2023-03-20T17:54:01.063Z,8.00
2023-03-20T17:56:33.045Z,7.07
2023-03-20T17:59:02.493Z,7.97
2023-03-20T18:01:32.811Z,7.13
2023-03-20T18:04:01.665Z,6.80
2023-03-20T18:06:37.154Z,7.30
2023-03-20T18:09:06.256Z,6.90
2023-03-20T18:11:35.004Z,7.10
2023-03-20T18:14:07.008Z,6.20
2023-03-20T18:16:38.282Z,6.40
2023-03-20T18:19:07.069Z,7.67
2023-03-20T18:21:36.968Z,7.33
2023-03-20T18:24:06.618Z,7.23
2023-03-20T18:26:35.116Z,6.93
2023-03-20T18:29:03.983Z,7.77
2023-03-20T18:31:33.757Z,8.07
2023-03-20T18:34:02.048Z,7.10
2023-03-20T18:36:30.490Z,7.00
2023-03-20T18:39:00.994Z,7.20
2023-03-20T18:41:29.883Z,6.90
2023-03-20T18:43:58.464Z,7.47
2023-03-20T18:46:28.020Z,6.80
2023-03-20T18:48:58.172Z,7.70
2023-03-20T18:51:26.759Z,6.73
2023-03-20T18:53:55.759Z,7.70
2023-03-20T18:56:34.164Z,7.77
2023-03-20T18:59:06.662Z,8.73
2023-03-20T19:01:35.990Z,7.00
2023-03-20T19:04:06.914Z,7.07
2023-03-20T19:06:35.575Z,7.27
2023-03-20T19:09:06.077Z,7.10
2023-03-20T19:11:36.096Z,6.67
2023-03-20T19:14:05.246Z,8.10
2023-03-20T19:16:36.038Z,8.10
2023-03-20T19:19:06.459Z,6.63
2023-03-20T19:21:36.049Z,8.17
2023-03-20T19:24:06.877Z,16.87
2023-03-20T19:26:38.876Z,8.13
2023-03-20T19:29:10.810Z,6.70
2023-03-20T19:31:46.770Z,6.50
2023-03-20T19:34:44.510Z,6.73
2023-03-20T19:37:04.286Z,6.77
2023-03-20T19:39:33.047Z,6.30
2023-03-20T19:42:37.766Z,6.60
2023-03-20T19:44:55.332Z,6.30
2023-03-20T19:47:24.115Z,5.57
2023-03-20T19:49:52.864Z,6.67
2023-03-20T19:52:28.771Z,6.80
2023-03-20T19:55:02.938Z,7.87
2023-03-20T19:57:33.352Z,8.20
2023-03-20T20:00:50.673Z,6.40
2023-03-20T20:02:51.060Z,7.17
2023-03-20T20:05:23.116Z,6.63
2023-03-20T20:08:24.007Z,6.00
2023-03-20T20:10:42.464Z,6.43
2023-03-20T20:13:16.328Z,6.40
2023-03-20T20:15:58.465Z,5.93
2023-03-20T20:18:29.526Z,5.90
2023-03-20T20:21:59.747Z,5.67
2023-03-20T20:23:48.054Z,7.00
2023-03-20T20:26:17.317Z,7.27
2023-03-20T20:28:47.586Z,6.90
2023-03-20T20:31:17.597Z,6.73
2023-03-20T20:34:02.245Z,7.07
2023-03-20T20:39:27.205Z,6.73
2023-03-20T20:41:58.464Z,6.70
2023-03-20T20:44:31.129Z,6.53
2023-03-20T20:47:03.399Z,5.93
2023-03-20T20:49:34.597Z,6.00
2023-03-20T20:52:04.021Z,5.10
2023-03-20T20:54:34.362Z,5.33
2023-03-20T20:57:03.802Z,6.03
2023-03-20T20:59:37.907Z,5.93
2023-03-20T21:02:11.335Z,5.83
2023-03-20T21:04:41.024Z,5.43
2023-03-20T21:07:12.157Z,4.23
2023-03-20T21:09:41.683Z,6.07
2023-03-20T21:12:26.504Z,4.73
2023-03-20T21:15:05.735Z,5.20
2023-03-20T21:17:34.830Z,5.30
2023-03-20T21:20:03.536Z,5.10
2023-03-20T21:22:34.117Z,5.17
2023-03-20T21:25:13.896Z,6.67
2023-03-20T21:27:43.708Z,5.27
2023-03-20T21:30:14.442Z,9.10
2023-03-20T21:32:44.070Z,9.30
2023-03-20T21:35:13.127Z,6.37
2023-03-20T21:40:32.793Z,5.83
2023-03-20T21:43:01.714Z,5.70
2023-03-20T21:46:19.052Z,7.00
2023-03-20T21:48:58.362Z,6.63
2023-03-20T21:52:14.464Z,6.63
2023-03-20T21:57:28.821Z,5.50
2023-03-20T22:00:14.940Z,5.90
2023-03-20T22:02:30.943Z,5.50
2023-03-20T22:11:31.661Z,9.80
2023-03-20T22:14:40.693Z,8.70
2023-03-20T22:22:56.300Z,6.40
2023-03-20T22:25:35.360Z,5.90
2023-03-20T22:28:16.916Z,5.60
2023-03-20T22:34:16.232Z,4.93
2023-03-20T22:37:34.510Z,5.30
2023-03-20T22:40:08.730Z,5.97
2023-03-20T22:45:03.284Z,6.73
2023-03-20T22:47:32.866Z,6.93
2023-03-20T22:50:01.529Z,8.43
2023-03-20T22:52:47.744Z,8.30
2023-03-20T22:55:18.699Z,8.80
2023-03-20T22:58:03.958Z,8.47
2023-03-20T23:00:35.164Z,7.83
2023-03-20T23:03:17.583Z,7.57
2023-03-20T23:05:54.263Z,7.73
2023-03-20T23:08:24.957Z,9.00
2023-03-20T23:10:53.953Z,7.03
2023-03-20T23:13:22.601Z,7.63
2023-03-20T23:15:52.203Z,6.50
2023-03-20T23:18:21.095Z,7.43
2023-03-20T23:20:50.085Z,6.70
2023-03-20T23:23:19.147Z,6.90
2023-03-20T23:25:49.280Z,7.03
2023-03-20T23:28:18.115Z,7.83
2023-03-20T23:31:07.594Z,6.60
2023-03-20T23:33:38.838Z,6.00
2023-03-20T23:36:24.768Z,6.90
2023-03-20T23:38:57.335Z,7.67
2023-03-20T23:41:57.725Z,5.60
2023-03-20T23:44:18.545Z,6.00
2023-03-20T23:46:48.324Z,7.30
2023-03-20T23:50:32.182Z,7.40
2023-03-20T23:53:19.436Z,6.23
2023-03-20T23:55:49.328Z,6.43
2023-03-20T23:58:22.406Z,6.07
